• Join FlightAware (Why Join?)
  • Login
  • US Flag 
03:04AM EDT


 

Airport Tracker/Info


-or-


 

Live Flight TrackerFlight Track Log ✈ AWE3417 ✈ 11-Apr-2013 ✈ KDCA - KCMH

Flight Track Log - Related Links

Times and Time Zones

All times are in EDT time to prevent confusion due to time zone crossing. See the AWE3417 flight status page for this flight to view local times or setup timezone preferences in your user account.

Time Position Orientation Groundspeed Altitude Reporting Facility
EDT Latitude Longitude Course Direction KTS MPH feet Rate Location/Type
09:20PM 38.8167 -77.0333 274° West 161 185 1,600  Level Potomac TRACON
09:21PM 38.7667 -77.0667 207° Southwest 236 272 3,500 2,040 Climbing Potomac TRACON
09:22PM 38.9167 -77.3814 270° West  Level FlightAware Approximate
09:22PM 38.7667 -77.1500 270° West 252 290 5,700  Level Potomac TRACON
09:23PM 38.9333 -77.5004 270° West  Level FlightAware Approximate
09:23PM 38.7500 -77.2500 258° West 272 313 8,600  Level Potomac TRACON
09:24PM 38.9333 -77.6257 270° West  Level FlightAware Approximate
09:25PM 38.9333 -77.7509 270° West  Level FlightAware Approximate
09:25PM 38.8408 -77.4467 301° West 318 366 12,000  Level Washington Center
09:26PM 38.9389 -77.8760 274° West  Level FlightAware Approximate
09:26PM 38.8831 -77.5436 299° West 338 389 14,100  Level Washington Center
09:27PM 38.9353 -77.6653 299° West 354 407 16,200 1,740 Climbing Washington Center
09:28PM 38.9456 -77.7775 277° West 342 394 17,600 1,500 Climbing Washington Center
09:29PM 38.9494 -77.9031 272° West 349 402 19,200 1,440 Climbing Washington Center
09:30PM 38.9533 -78.0286 272° West 355 409 20,500 1,320 Climbing Washington Center
09:31PM 38.9569 -78.1569 272° West 355 409 21,900 1,320 Climbing Washington Center
09:32PM 38.9603 -78.2878 272° West 365 420 23,200 1,080 Climbing Washington Center
09:33PM 38.9656 -78.4217 273° West 370 426 24,100 900 Climbing Washington Center
09:34PM 38.9683 -78.5686 271° West 377 434 25,000 1,200 Climbing Washington Center
09:35PM 38.9733 -78.6969 273° West 387 445 26,500 1,200 Climbing Washington Center
09:36PM 38.9761 -78.8333 272° West 387 445 27,500 720 Climbing Washington Center
09:37PM 38.9847 -78.9725 275° West 387 445 28,000 240 Climbing Washington Center
09:38PM 38.9953 -79.1092 276° West 387 445 28,000  Level Washington Center
09:39PM 39.0058 -79.2514 276° West 387 445 28,000  Level Washington Center
09:40PM 39.0161 -79.3908 275° West 387 445 28,000  Level Washington Center
09:41PM 39.0261 -79.5275 275° West 387 445 28,000  Level Washington Center
09:42PM 39.0400 -79.6781 277° West 414 476 28,000  Level Washington Center
09:43PM 39.0519 -79.8122 277° West 408 470 28,000  Level Washington Center
09:44PM 39.0614 -79.9544 275° West 408 470 28,000  Level Washington Center
09:46PM 39.0744 -80.2103 274° West 406 467 28,000  Level Indianapolis Center
09:47PM 39.0858 -80.3825 275° West 403 464 28,000  Level Indianapolis Center
09:48PM 39.0944 -80.5261 274° West 402 463 28,000  Level Indianapolis Center
09:49PM 39.1033 -80.6703 275° West 406 467 28,000  Level Indianapolis Center
09:50PM 39.1353 -80.8083 287° West 411 473 28,000  Level Indianapolis Center
09:51PM 39.1772 -80.9450 292° West 411 473 28,000  Level Indianapolis Center
09:52PM 39.2175 -81.0811 291° West 409 471 28,000 -180 Level Indianapolis Center
09:53PM 39.2594 -81.2158 292° West 407 468 27,700 -840 Descending Indianapolis Center
09:54PM 39.2992 -81.3492 291° West 402 463 26,400 -840 Descending Indianapolis Center
09:55PM 39.3469 -81.5119 291° West 404 465 26,000 -720 Descending Indianapolis Center
09:56PM 39.3861 -81.6458 291° West 401 461 25,000 -1,680 Descending Indianapolis Center
09:57PM 39.4244 -81.7750 291° West 390 449 22,600 -2,400 Descending Indianapolis Center
09:58PM 39.4586 -81.8942 290° West 359 413 20,100 -2,580 Descending Indianapolis Center
09:59PM 39.4914 -82.0072 291° West 341 392 17,400 -2,460 Descending Indianapolis Center
10:01PM 39.5239 -82.1194 291° West 334 384 15,100 -2,460 Descending Indianapolis Center
10:01PM 39.5428 -82.1878 290° West 329 379 13,700 -2,280 Descending Indianapolis Center
10:02PM 39.5583 -82.2300 296° West 328 377 12,800 -1,920 Descending Indianapolis Center
10:02PM 39.6311 -82.2808 332° Northwest 363 418 11,400 -1,620 Descending Indianapolis Center
10:03PM 39.6494 -82.2864 347° North 360 414 11,200 -1,200 Descending Indianapolis Center
10:03PM 39.7183 -82.3253 337° Northwest 341 392 10,200 -1,320 Descending Indianapolis Center
10:04PM 39.7350 -82.3350 336° Northwest 336 387 9,900 -1,440 Descending Indianapolis Center
10:04PM 39.7950 -82.3711 335° Northwest 328 377 8,900 -1,620 Descending Indianapolis Center
10:05PM 39.8325 -82.3928 336° Northwest 327 376 8,300 -1,200 Descending Indianapolis Center
10:05PM 39.8744 -82.4394 320° Northwest 316 364 7,600 -1,200 Descending Indianapolis Center
10:06PM 39.8989 -82.4700 316° Northwest 320 368 7,100 -1,380 Descending Indianapolis Center
10:06PM 39.9364 -82.5167 316° Northwest 306 352 6,200 -1,620 Descending Indianapolis Center
10:07PM 39.9600 -82.5461 316° Northwest 306 352 5,500 -1,800 Descending Indianapolis Center
10:07PM 39.9842 -82.6197 293° West 288 331 4,200 -1,680 Descending Indianapolis Center
10:08PM 39.9875 -82.6431 281° West 286 329 3,800 -1,140 Descending Indianapolis Center
10:08PM 39.9906 -82.7131 273° West 247 284 3,100 -1,020 Descending Indianapolis Center